sensor_id;sensor_type;location;lat;lon;timestamp;P1;durP1;ratioP1;P2;durP2;ratioP2
60292;SDS011;52402;52.670;6.750;2023-08-06T00:02:24;0.40;;;0.40;;
60292;SDS011;52402;52.670;6.750;2023-08-06T00:04:50;0.40;;;0.40;;
60292;SDS011;52402;52.670;6.750;2023-08-06T00:07:15;0.50;;;0.50;;
60292;SDS011;52402;52.670;6.750;2023-08-06T00:09:41;0.40;;;0.40;;
60292;SDS011;52402;52.670;6.750;2023-08-06T00:12:06;0.40;;;0.40;;
60292;SDS011;52402;52.670;6.750;2023-08-06T00:14:32;0.40;;;0.40;;
60292;SDS011;52402;52.670;6.750;2023-08-06T00:16:58;0.40;;;0.40;;
60292;SDS011;52402;52.670;6.750;2023-08-06T00:19:23;0.40;;;0.40;;
60292;SDS011;52402;52.670;6.750;2023-08-06T00:21:49;0.40;;;0.40;;
60292;SDS011;52402;52.670;6.750;2023-08-06T00:24:15;0.40;;;0.40;;
60292;SDS011;52402;52.670;6.750;2023-08-06T00:26:40;0.40;;;0.40;;
60292;SDS011;52402;52.670;6.750;2023-08-06T00:29:06;0.40;;;0.40;;
60292;SDS011;52402;52.670;6.750;2023-08-06T00:31:31;0.43;;;0.43;;
60292;SDS011;52402;52.670;6.750;2023-08-06T00:33:57;0.50;;;0.50;;
60292;SDS011;52402;52.670;6.750;2023-08-06T00:36:23;0.40;;;0.40;;
60292;SDS011;52402;52.670;6.750;2023-08-06T00:38:48;0.50;;;0.50;;
60292;SDS011;52402;52.670;6.750;2023-08-06T00:41:14;0.50;;;0.50;;
60292;SDS011;52402;52.670;6.750;2023-08-06T00:43:40;0.50;;;0.50;;
60292;SDS011;52402;52.670;6.750;2023-08-06T00:46:05;0.40;;;0.40;;
60292;SDS011;52402;52.670;6.750;2023-08-06T00:48:31;0.50;;;0.50;;
60292;SDS011;52402;52.670;6.750;2023-08-06T00:50:57;0.40;;;0.40;;
60292;SDS011;52402;52.670;6.750;2023-08-06T00:53:23;0.40;;;0.40;;
60292;SDS011;52402;52.670;6.750;2023-08-06T00:55:49;0.40;;;0.40;;
60292;SDS011;52402;52.670;6.750;2023-08-06T00:58:16;0.40;;;0.40;;
60292;SDS011;52402;52.670;6.750;2023-08-06T01:00:41;0.40;;;0.40;;
60292;SDS011;52402;52.670;6.750;2023-08-06T01:03:07;0.50;;;0.50;;
60292;SDS011;52402;52.670;6.750;2023-08-06T01:05:33;0.50;;;0.50;;
60292;SDS011;52402;52.670;6.750;2023-08-06T01:08:15;0.50;;;0.50;;
60292;SDS011;52402;52.670;6.750;2023-08-06T01:13:38;0.50;;;0.50;;
60292;SDS011;52402;52.670;6.750;2023-08-06T01:16:11;0.40;;;0.40;;
60292;SDS011;52402;52.670;6.750;2023-08-06T01:18:41;0.40;;;0.40;;
60292;SDS011;52402;52.670;6.750;2023-08-06T01:21:11;0.38;;;0.38;;
60292;SDS011;52402;52.670;6.750;2023-08-06T01:23:39;0.40;;;0.40;;
60292;SDS011;52402;52.670;6.750;2023-08-06T01:26:27;0.40;;;0.40;;
60292;SDS011;52402;52.670;6.750;2023-08-06T01:31:41;0.40;;;0.40;;
60292;SDS011;52402;52.670;6.750;2023-08-06T01:34:09;0.38;;;0.38;;
60292;SDS011;52402;52.670;6.750;2023-08-06T01:36:43;0.40;;;0.40;;
60292;SDS011;52402;52.670;6.750;2023-08-06T01:39:09;0.40;;;0.40;;
60292;SDS011;52402;52.670;6.750;2023-08-06T01:41:35;0.50;;;0.50;;
60292;SDS011;52402;52.670;6.750;2023-08-06T01:44:01;0.40;;;0.40;;
60292;SDS011;52402;52.670;6.750;2023-08-06T01:46:26;0.50;;;0.50;;
60292;SDS011;52402;52.670;6.750;2023-08-06T01:48:52;0.40;;;0.40;;
60292;SDS011;52402;52.670;6.750;2023-08-06T01:51:17;0.40;;;0.40;;
60292;SDS011;52402;52.670;6.750;2023-08-06T01:53:43;0.40;;;0.40;;
60292;SDS011;52402;52.670;6.750;2023-08-06T01:56:09;0.50;;;0.50;;
60292;SDS011;52402;52.670;6.750;2023-08-06T01:58:34;0.50;;;0.50;;
60292;SDS011;52402;52.670;6.750;2023-08-06T02:01:01;0.50;;;0.50;;
60292;SDS011;52402;52.670;6.750;2023-08-06T02:03:27;0.40;;;0.40;;
60292;SDS011;52402;52.670;6.750;2023-08-06T02:05:53;0.40;;;0.40;;
60292;SDS011;52402;52.670;6.750;2023-08-06T02:08:20;0.40;;;0.40;;
60292;SDS011;52402;52.670;6.750;2023-08-06T02:10:45;0.50;;;0.50;;
60292;SDS011;52402;52.670;6.750;2023-08-06T02:13:11;0.47;;;0.47;;
60292;SDS011;52402;52.670;6.750;2023-08-06T02:15:43;0.43;;;0.43;;
60292;SDS011;52402;52.670;6.750;2023-08-06T02:18:09;0.40;;;0.40;;
60292;SDS011;52402;52.670;6.750;2023-08-06T02:20:35;0.50;;;0.50;;
60292;SDS011;52402;52.670;6.750;2023-08-06T02:23:01;0.47;;;0.47;;
60292;SDS011;52402;52.670;6.750;2023-08-06T02:25:26;0.40;;;0.40;;
60292;SDS011;52402;52.670;6.750;2023-08-06T02:27:52;0.40;;;0.40;;
60292;SDS011;52402;52.670;6.750;2023-08-06T02:30:18;0.40;;;0.40;;
60292;SDS011;52402;52.670;6.750;2023-08-06T02:32:43;0.40;;;0.40;;
60292;SDS011;52402;52.670;6.750;2023-08-06T02:35:09;0.40;;;0.40;;
60292;SDS011;52402;52.670;6.750;2023-08-06T02:37:35;0.40;;;0.40;;
60292;SDS011;52402;52.670;6.750;2023-08-06T02:40:00;0.40;;;0.40;;
60292;SDS011;52402;52.670;6.750;2023-08-06T02:42:27;0.40;;;0.40;;
60292;SDS011;52402;52.670;6.750;2023-08-06T02:44:52;0.47;;;0.47;;
60292;SDS011;52402;52.670;6.750;2023-08-06T02:47:20;0.40;;;0.40;;
60292;SDS011;52402;52.670;6.750;2023-08-06T02:49:46;0.60;;;0.60;;
60292;SDS011;52402;52.670;6.750;2023-08-06T02:52:11;0.50;;;0.50;;
60292;SDS011;52402;52.670;6.750;2023-08-06T02:54:37;0.40;;;0.40;;
60292;SDS011;52402;52.670;6.750;2023-08-06T02:57:03;0.50;;;0.50;;
60292;SDS011;52402;52.670;6.750;2023-08-06T02:59:30;0.40;;;0.40;;
60292;SDS011;52402;52.670;6.750;2023-08-06T03:01:56;0.40;;;0.40;;
60292;SDS011;52402;52.670;6.750;2023-08-06T03:04:23;0.50;;;0.50;;
60292;SDS011;52402;52.670;6.750;2023-08-06T03:06:49;0.47;;;0.47;;
60292;SDS011;52402;52.670;6.750;2023-08-06T03:09:15;0.40;;;0.40;;
60292;SDS011;52402;52.670;6.750;2023-08-06T03:11:41;0.40;;;0.40;;
60292;SDS011;52402;52.670;6.750;2023-08-06T03:14:07;0.40;;;0.40;;
60292;SDS011;52402;52.670;6.750;2023-08-06T03:16:32;0.50;;;0.50;;
60292;SDS011;52402;52.670;6.750;2023-08-06T03:18:58;0.40;;;0.40;;
60292;SDS011;52402;52.670;6.750;2023-08-06T03:21:24;0.40;;;0.40;;
60292;SDS011;52402;52.670;6.750;2023-08-06T03:23:50;0.50;;;0.50;;
60292;SDS011;52402;52.670;6.750;2023-08-06T03:26:15;0.40;;;0.40;;
60292;SDS011;52402;52.670;6.750;2023-08-06T03:28:41;0.40;;;0.40;;
60292;SDS011;52402;52.670;6.750;2023-08-06T03:31:07;0.40;;;0.40;;
60292;SDS011;52402;52.670;6.750;2023-08-06T03:33:33;0.40;;;0.40;;
60292;SDS011;52402;52.670;6.750;2023-08-06T03:35:58;0.50;;;0.50;;
60292;SDS011;52402;52.670;6.750;2023-08-06T03:38:24;0.40;;;0.40;;
60292;SDS011;52402;52.670;6.750;2023-08-06T03:40:50;0.50;;;0.50;;
60292;SDS011;52402;52.670;6.750;2023-08-06T03:43:15;0.40;;;0.40;;
60292;SDS011;52402;52.670;6.750;2023-08-06T03:45:41;0.40;;;0.40;;
60292;SDS011;52402;52.670;6.750;2023-08-06T03:48:07;0.50;;;0.50;;
60292;SDS011;52402;52.670;6.750;2023-08-06T03:50:33;0.40;;;0.40;;
60292;SDS011;52402;52.670;6.750;2023-08-06T03:52:59;0.50;;;0.50;;
60292;SDS011;52402;52.670;6.750;2023-08-06T03:55:25;0.50;;;0.50;;
60292;SDS011;52402;52.670;6.750;2023-08-06T03:57:50;0.40;;;0.40;;
60292;SDS011;52402;52.670;6.750;2023-08-06T04:00:16;0.40;;;0.40;;
60292;SDS011;52402;52.670;6.750;2023-08-06T04:02:42;0.40;;;0.40;;
60292;SDS011;52402;52.670;6.750;2023-08-06T04:05:08;0.40;;;0.40;;
60292;SDS011;52402;52.670;6.750;2023-08-06T04:07:33;0.50;;;0.50;;
60292;SDS011;52402;52.670;6.750;2023-08-06T04:10:00;0.40;;;0.40;;
60292;SDS011;52402;52.670;6.750;2023-08-06T04:12:27;0.40;;;0.40;;
60292;SDS011;52402;52.670;6.750;2023-08-06T04:14:53;0.40;;;0.40;;
60292;SDS011;52402;52.670;6.750;2023-08-06T04:17:19;0.40;;;0.40;;
60292;SDS011;52402;52.670;6.750;2023-08-06T04:19:52;0.40;;;0.40;;
60292;SDS011;52402;52.670;6.750;2023-08-06T04:22:19;0.50;;;0.50;;
60292;SDS011;52402;52.670;6.750;2023-08-06T04:24:45;0.40;;;0.40;;
60292;SDS011;52402;52.670;6.750;2023-08-06T04:27:11;0.50;;;0.50;;
60292;SDS011;52402;52.670;6.750;2023-08-06T04:29:38;0.50;;;0.50;;
60292;SDS011;52402;52.670;6.750;2023-08-06T04:32:05;0.47;;;0.47;;
60292;SDS011;52402;52.670;6.750;2023-08-06T04:34:31;0.47;;;0.47;;
60292;SDS011;52402;52.670;6.750;2023-08-06T04:36:58;0.38;;;0.38;;
60292;SDS011;52402;52.670;6.750;2023-08-06T04:39:24;0.40;;;0.40;;
60292;SDS011;52402;52.670;6.750;2023-08-06T04:41:50;0.40;;;0.40;;
60292;SDS011;52402;52.670;6.750;2023-08-06T04:44:15;0.50;;;0.50;;
60292;SDS011;52402;52.670;6.750;2023-08-06T04:46:41;0.40;;;0.40;;
60292;SDS011;52402;52.670;6.750;2023-08-06T04:49:06;0.50;;;0.50;;
60292;SDS011;52402;52.670;6.750;2023-08-06T04:51:32;0.40;;;0.40;;
60292;SDS011;52402;52.670;6.750;2023-08-06T04:53:58;0.50;;;0.50;;
60292;SDS011;52402;52.670;6.750;2023-08-06T04:56:24;0.50;;;0.50;;
60292;SDS011;52402;52.670;6.750;2023-08-06T04:58:49;0.40;;;0.40;;
60292;SDS011;52402;52.670;6.750;2023-08-06T05:01:15;0.40;;;0.40;;
60292;SDS011;52402;52.670;6.750;2023-08-06T05:03:41;0.47;;;0.47;;
60292;SDS011;52402;52.670;6.750;2023-08-06T05:06:06;0.40;;;0.40;;
60292;SDS011;52402;52.670;6.750;2023-08-06T05:08:32;0.40;;;0.40;;
60292;SDS011;52402;52.670;6.750;2023-08-06T05:10:58;0.40;;;0.40;;
60292;SDS011;52402;52.670;6.750;2023-08-06T05:13:23;0.50;;;0.50;;
60292;SDS011;52402;52.670;6.750;2023-08-06T05:15:50;0.50;;;0.50;;
60292;SDS011;52402;52.670;6.750;2023-08-06T05:18:16;0.50;;;0.50;;
60292;SDS011;52402;52.670;6.750;2023-08-06T05:20:42;0.50;;;0.50;;
60292;SDS011;52402;52.670;6.750;2023-08-06T05:23:08;0.40;;;0.40;;
60292;SDS011;52402;52.670;6.750;2023-08-06T05:25:34;0.40;;;0.40;;
60292;SDS011;52402;52.670;6.750;2023-08-06T05:28:00;0.47;;;0.47;;
60292;SDS011;52402;52.670;6.750;2023-08-06T05:30:27;0.40;;;0.40;;
60292;SDS011;52402;52.670;6.750;2023-08-06T05:32:53;0.40;;;0.40;;
60292;SDS011;52402;52.670;6.750;2023-08-06T05:35:18;0.40;;;0.40;;
60292;SDS011;52402;52.670;6.750;2023-08-06T05:37:44;0.50;;;0.50;;
60292;SDS011;52402;52.670;6.750;2023-08-06T05:40:10;0.40;;;0.40;;
60292;SDS011;52402;52.670;6.750;2023-08-06T05:42:39;0.40;;;0.40;;
60292;SDS011;52402;52.670;6.750;2023-08-06T05:45:05;0.40;;;0.40;;
60292;SDS011;52402;52.670;6.750;2023-08-06T05:47:31;0.43;;;0.43;;
60292;SDS011;52402;52.670;6.750;2023-08-06T05:49:57;0.50;;;0.50;;
60292;SDS011;52402;52.670;6.750;2023-08-06T05:52:22;0.40;;;0.40;;
60292;SDS011;52402;52.670;6.750;2023-08-06T05:54:48;0.50;;;0.50;;
60292;SDS011;52402;52.670;6.750;2023-08-06T05:57:14;0.50;;;0.50;;
60292;SDS011;52402;52.670;6.750;2023-08-06T05:59:40;0.47;;;0.47;;
60292;SDS011;52402;52.670;6.750;2023-08-06T06:02:06;0.40;;;0.40;;
60292;SDS011;52402;52.670;6.750;2023-08-06T06:04:32;0.40;;;0.40;;
60292;SDS011;52402;52.670;6.750;2023-08-06T06:06:57;0.50;;;0.50;;
60292;SDS011;52402;52.670;6.750;2023-08-06T06:09:23;0.40;;;0.40;;
60292;SDS011;52402;52.670;6.750;2023-08-06T06:11:48;0.50;;;0.50;;
60292;SDS011;52402;52.670;6.750;2023-08-06T06:14:15;0.50;;;0.50;;
60292;SDS011;52402;52.670;6.750;2023-08-06T06:16:44;0.40;;;0.40;;
60292;SDS011;52402;52.670;6.750;2023-08-06T06:19:11;0.43;;;0.43;;
60292;SDS011;52402;52.670;6.750;2023-08-06T06:21:37;0.40;;;0.40;;
60292;SDS011;52402;52.670;6.750;2023-08-06T06:24:05;0.50;;;0.50;;
60292;SDS011;52402;52.670;6.750;2023-08-06T06:26:31;0.40;;;0.40;;
60292;SDS011;52402;52.670;6.750;2023-08-06T06:28:57;0.40;;;0.40;;
60292;SDS011;52402;52.670;6.750;2023-08-06T06:31:23;0.40;;;0.40;;
60292;SDS011;52402;52.670;6.750;2023-08-06T06:33:48;0.50;;;0.50;;
60292;SDS011;52402;52.670;6.750;2023-08-06T06:36:14;0.50;;;0.50;;
60292;SDS011;52402;52.670;6.750;2023-08-06T06:38:40;0.40;;;0.40;;
60292;SDS011;52402;52.670;6.750;2023-08-06T06:41:05;0.40;;;0.40;;
60292;SDS011;52402;52.670;6.750;2023-08-06T06:43:31;0.50;;;0.50;;
60292;SDS011;52402;52.670;6.750;2023-08-06T06:45:57;0.60;;;0.60;;
60292;SDS011;52402;52.670;6.750;2023-08-06T06:48:31;0.43;;;0.43;;
60292;SDS011;52402;52.670;6.750;2023-08-06T06:50:57;0.45;;;0.45;;
60292;SDS011;52402;52.670;6.750;2023-08-06T06:53:23;0.40;;;0.40;;
60292;SDS011;52402;52.670;6.750;2023-08-06T06:56:04;0.50;;;0.50;;
60292;SDS011;52402;52.670;6.750;2023-08-06T06:58:30;0.40;;;0.40;;
60292;SDS011;52402;52.670;6.750;2023-08-06T07:00:57;0.40;;;0.40;;
60292;SDS011;52402;52.670;6.750;2023-08-06T07:03:23;0.40;;;0.40;;
60292;SDS011;52402;52.670;6.750;2023-08-06T07:05:49;0.40;;;0.40;;
60292;SDS011;52402;52.670;6.750;2023-08-06T07:08:15;0.50;;;0.50;;
60292;SDS011;52402;52.670;6.750;2023-08-06T07:10:41;0.45;;;0.45;;
60292;SDS011;52402;52.670;6.750;2023-08-06T07:13:07;0.50;;;0.50;;
60292;SDS011;52402;52.670;6.750;2023-08-06T07:15:33;0.50;;;0.50;;
60292;SDS011;52402;52.670;6.750;2023-08-06T07:17:59;0.40;;;0.40;;
60292;SDS011;52402;52.670;6.750;2023-08-06T07:20:24;0.50;;;0.50;;
60292;SDS011;52402;52.670;6.750;2023-08-06T07:22:50;0.50;;;0.50;;
60292;SDS011;52402;52.670;6.750;2023-08-06T07:25:16;0.50;;;0.50;;
60292;SDS011;52402;52.670;6.750;2023-08-06T07:27:42;0.40;;;0.40;;
60292;SDS011;52402;52.670;6.750;2023-08-06T07:30:08;0.50;;;0.50;;
60292;SDS011;52402;52.670;6.750;2023-08-06T07:32:33;0.40;;;0.40;;
60292;SDS011;52402;52.670;6.750;2023-08-06T07:34:59;0.45;;;0.45;;
60292;SDS011;52402;52.670;6.750;2023-08-06T07:37:29;0.50;;;0.50;;
60292;SDS011;52402;52.670;6.750;2023-08-06T07:39:55;0.40;;;0.40;;
60292;SDS011;52402;52.670;6.750;2023-08-06T07:42:21;0.55;;;0.55;;
60292;SDS011;52402;52.670;6.750;2023-08-06T07:44:51;0.40;;;0.40;;
60292;SDS011;52402;52.670;6.750;2023-08-06T07:47:18;0.50;;;0.50;;
60292;SDS011;52402;52.670;6.750;2023-08-06T07:49:44;0.40;;;0.40;;
60292;SDS011;52402;52.670;6.750;2023-08-06T07:52:09;0.50;;;0.50;;
60292;SDS011;52402;52.670;6.750;2023-08-06T07:54:36;0.50;;;0.50;;
60292;SDS011;52402;52.670;6.750;2023-08-06T07:57:01;0.40;;;0.40;;
60292;SDS011;52402;52.670;6.750;2023-08-06T07:59:27;0.50;;;0.50;;
60292;SDS011;52402;52.670;6.750;2023-08-06T08:01:53;0.50;;;0.50;;
60292;SDS011;52402;52.670;6.750;2023-08-06T08:04:18;0.50;;;0.50;;
60292;SDS011;52402;52.670;6.750;2023-08-06T08:06:45;0.40;;;0.40;;
60292;SDS011;52402;52.670;6.750;2023-08-06T08:09:12;0.40;;;0.40;;
60292;SDS011;52402;52.670;6.750;2023-08-06T08:11:38;0.57;;;0.57;;
60292;SDS011;52402;52.670;6.750;2023-08-06T08:14:04;0.50;;;0.50;;
60292;SDS011;52402;52.670;6.750;2023-08-06T08:16:30;0.40;;;0.40;;
60292;SDS011;52402;52.670;6.750;2023-08-06T08:18:56;0.50;;;0.50;;
60292;SDS011;52402;52.670;6.750;2023-08-06T08:21:21;0.55;;;0.55;;
60292;SDS011;52402;52.670;6.750;2023-08-06T08:23:49;0.43;;;0.43;;
60292;SDS011;52402;52.670;6.750;2023-08-06T08:26:15;0.50;;;0.50;;
60292;SDS011;52402;52.670;6.750;2023-08-06T08:28:40;0.60;;;0.60;;
60292;SDS011;52402;52.670;6.750;2023-08-06T08:31:09;0.50;;;0.50;;
60292;SDS011;52402;52.670;6.750;2023-08-06T08:33:36;0.47;;;0.47;;
60292;SDS011;52402;52.670;6.750;2023-08-06T08:36:05;0.50;;;0.50;;
60292;SDS011;52402;52.670;6.750;2023-08-06T08:38:31;0.50;;;0.50;;
60292;SDS011;52402;52.670;6.750;2023-08-06T08:40:56;0.50;;;0.50;;
60292;SDS011;52402;52.670;6.750;2023-08-06T08:43:22;0.60;;;0.60;;
60292;SDS011;52402;52.670;6.750;2023-08-06T08:45:52;0.50;;;0.50;;
60292;SDS011;52402;52.670;6.750;2023-08-06T08:48:25;0.50;;;0.50;;
60292;SDS011;52402;52.670;6.750;2023-08-06T08:50:52;0.50;;;0.50;;
60292;SDS011;52402;52.670;6.750;2023-08-06T08:53:18;0.43;;;0.43;;
60292;SDS011;52402;52.670;6.750;2023-08-06T08:55:49;0.40;;;0.40;;
60292;SDS011;52402;52.670;6.750;2023-08-06T08:58:15;0.50;;;0.50;;
60292;SDS011;52402;52.670;6.750;2023-08-06T09:00:45;0.47;;;0.47;;
60292;SDS011;52402;52.670;6.750;2023-08-06T09:03:13;0.50;;;0.50;;
60292;SDS011;52402;52.670;6.750;2023-08-06T09:05:40;0.55;;;0.55;;
60292;SDS011;52402;52.670;6.750;2023-08-06T09:08:10;0.50;;;0.50;;
60292;SDS011;52402;52.670;6.750;2023-08-06T09:10:40;0.50;;;0.50;;
60292;SDS011;52402;52.670;6.750;2023-08-06T09:13:07;0.50;;;0.50;;
60292;SDS011;52402;52.670;6.750;2023-08-06T09:15:33;0.43;;;0.43;;
60292;SDS011;52402;52.670;6.750;2023-08-06T09:18:00;0.50;;;0.50;;
60292;SDS011;52402;52.670;6.750;2023-08-06T09:20:33;0.60;;;0.60;;
60292;SDS011;52402;52.670;6.750;2023-08-06T09:23:06;0.55;;;0.55;;
60292;SDS011;52402;52.670;6.750;2023-08-06T09:25:37;0.50;;;0.50;;
60292;SDS011;52402;52.670;6.750;2023-08-06T09:28:06;0.50;;;0.50;;
60292;SDS011;52402;52.670;6.750;2023-08-06T09:30:33;0.50;;;0.50;;
60292;SDS011;52402;52.670;6.750;2023-08-06T09:33:01;0.68;;;0.68;;
60292;SDS011;52402;52.670;6.750;2023-08-06T09:35:30;0.50;;;0.50;;
60292;SDS011;52402;52.670;6.750;2023-08-06T09:38:09;0.50;;;0.50;;
60292;SDS011;52402;52.670;6.750;2023-08-06T09:40:36;0.60;;;0.60;;
60292;SDS011;52402;52.670;6.750;2023-08-06T09:43:03;0.57;;;0.57;;
60292;SDS011;52402;52.670;6.750;2023-08-06T09:45:33;0.63;;;0.63;;
60292;SDS011;52402;52.670;6.750;2023-08-06T09:48:00;0.57;;;0.57;;
60292;SDS011;52402;52.670;6.750;2023-08-06T09:53:01;0.52;;;0.52;;
60292;SDS011;52402;52.670;6.750;2023-08-06T09:55:28;0.57;;;0.57;;
60292;SDS011;52402;52.670;6.750;2023-08-06T09:57:55;0.60;;;0.60;;
60292;SDS011;52402;52.670;6.750;2023-08-06T10:00:21;0.60;;;0.60;;
60292;SDS011;52402;52.670;6.750;2023-08-06T10:02:48;0.60;;;0.60;;
60292;SDS011;52402;52.670;6.750;2023-08-06T10:05:15;0.55;;;0.55;;
60292;SDS011;52402;52.670;6.750;2023-08-06T10:07:42;0.60;;;0.60;;
60292;SDS011;52402;52.670;6.750;2023-08-06T10:10:09;0.57;;;0.57;;
60292;SDS011;52402;52.670;6.750;2023-08-06T10:12:43;0.70;;;0.70;;
60292;SDS011;52402;52.670;6.750;2023-08-06T10:15:21;0.70;;;0.70;;
60292;SDS011;52402;52.670;6.750;2023-08-06T10:17:50;0.70;;;0.70;;
60292;SDS011;52402;52.670;6.750;2023-08-06T10:20:19;0.70;;;0.70;;
60292;SDS011;52402;52.670;6.750;2023-08-06T10:22:57;0.70;;;0.70;;
60292;SDS011;52402;52.670;6.750;2023-08-06T10:25:26;0.63;;;0.63;;
60292;SDS011;52402;52.670;6.750;2023-08-06T10:27:55;0.70;;;0.70;;
60292;SDS011;52402;52.670;6.750;2023-08-06T10:37:59;0.70;;;0.70;;
60292;SDS011;52402;52.670;6.750;2023-08-06T10:40:32;0.80;;;0.80;;
60292;SDS011;52402;52.670;6.750;2023-08-06T10:42:59;0.60;;;0.60;;
60292;SDS011;52402;52.670;6.750;2023-08-06T10:45:25;0.75;;;0.75;;
60292;SDS011;52402;52.670;6.750;2023-08-06T10:47:54;0.80;;;0.80;;
60292;SDS011;52402;52.670;6.750;2023-08-06T10:50:21;0.85;;;0.85;;
60292;SDS011;52402;52.670;6.750;2023-08-06T10:52:47;0.90;;;0.90;;
60292;SDS011;52402;52.670;6.750;2023-08-06T10:55:33;0.80;;;0.80;;
60292;SDS011;52402;52.670;6.750;2023-08-06T10:57:59;0.90;;;0.90;;
60292;SDS011;52402;52.670;6.750;2023-08-06T11:00:25;0.70;;;0.70;;
60292;SDS011;52402;52.670;6.750;2023-08-06T11:02:51;0.80;;;0.80;;
60292;SDS011;52402;52.670;6.750;2023-08-06T11:05:18;0.80;;;0.80;;
60292;SDS011;52402;52.670;6.750;2023-08-06T11:07:44;0.80;;;0.80;;
60292;SDS011;52402;52.670;6.750;2023-08-06T11:10:10;0.98;;;0.98;;
60292;SDS011;52402;52.670;6.750;2023-08-06T11:12:37;0.90;;;0.90;;
60292;SDS011;52402;52.670;6.750;2023-08-06T11:15:03;1.00;;;1.00;;
60292;SDS011;52402;52.670;6.750;2023-08-06T11:17:31;0.93;;;0.93;;
60292;SDS011;52402;52.670;6.750;2023-08-06T11:20:01;1.20;;;1.20;;
60292;SDS011;52402;52.670;6.750;2023-08-06T11:22:28;0.90;;;0.90;;
60292;SDS011;52402;52.670;6.750;2023-08-06T11:24:54;1.10;;;1.10;;
60292;SDS011;52402;52.670;6.750;2023-08-06T11:27:20;0.90;;;0.90;;
60292;SDS011;52402;52.670;6.750;2023-08-06T11:29:45;1.10;;;1.10;;
60292;SDS011;52402;52.670;6.750;2023-08-06T11:32:11;1.00;;;1.00;;
60292;SDS011;52402;52.670;6.750;2023-08-06T11:34:37;1.10;;;1.10;;
60292;SDS011;52402;52.670;6.750;2023-08-06T11:37:06;1.15;;;1.15;;
60292;SDS011;52402;52.670;6.750;2023-08-06T11:39:33;1.40;;;1.30;;
60292;SDS011;52402;52.670;6.750;2023-08-06T11:41:59;1.10;;;1.10;;
60292;SDS011;52402;52.670;6.750;2023-08-06T11:44:29;1.35;;;1.25;;
60292;SDS011;52402;52.670;6.750;2023-08-06T11:46:59;1.00;;;1.00;;
60292;SDS011;52402;52.670;6.750;2023-08-06T11:49:40;1.00;;;1.00;;
60292;SDS011;52402;52.670;6.750;2023-08-06T11:52:16;1.10;;;1.10;;
60292;SDS011;52402;52.670;6.750;2023-08-06T11:54:44;1.08;;;1.08;;
60292;SDS011;52402;52.670;6.750;2023-08-06T11:57:11;1.35;;;1.25;;
60292;SDS011;52402;52.670;6.750;2023-08-06T11:59:37;1.23;;;1.20;;
60292;SDS011;52402;52.670;6.750;2023-08-06T12:02:04;1.20;;;1.20;;
60292;SDS011;52402;52.670;6.750;2023-08-06T12:04:56;1.75;;;1.65;;
60292;SDS011;52402;52.670;6.750;2023-08-06T12:07:29;1.50;;;1.40;;
60292;SDS011;52402;52.670;6.750;2023-08-06T12:09:56;1.77;;;1.67;;
60292;SDS011;52402;52.670;6.750;2023-08-06T12:12:22;1.50;;;1.40;;
60292;SDS011;52402;52.670;6.750;2023-08-06T12:14:50;1.30;;;1.23;;
60292;SDS011;52402;52.670;6.750;2023-08-06T12:17:16;1.60;;;1.50;;
60292;SDS011;52402;52.670;6.750;2023-08-06T12:19:44;1.52;;;1.42;;
60292;SDS011;52402;52.670;6.750;2023-08-06T12:22:10;1.42;;;1.33;;
60292;SDS011;52402;52.670;6.750;2023-08-06T12:24:36;1.55;;;1.45;;
60292;SDS011;52402;52.670;6.750;2023-08-06T12:27:01;1.40;;;1.30;;
60292;SDS011;52402;52.670;6.750;2023-08-06T12:29:28;1.45;;;1.35;;
60292;SDS011;52402;52.670;6.750;2023-08-06T12:31:53;1.50;;;1.40;;
60292;SDS011;52402;52.670;6.750;2023-08-06T12:34:19;1.52;;;1.42;;
60292;SDS011;52402;52.670;6.750;2023-08-06T12:36:44;1.50;;;1.40;;
60292;SDS011;52402;52.670;6.750;2023-08-06T12:39:10;1.42;;;1.33;;
60292;SDS011;52402;52.670;6.750;2023-08-06T12:41:35;1.30;;;1.23;;
60292;SDS011;52402;52.670;6.750;2023-08-06T12:44:01;1.20;;;1.20;;
60292;SDS011;52402;52.670;6.750;2023-08-06T12:46:27;1.10;;;1.10;;
60292;SDS011;52402;52.670;6.750;2023-08-06T12:48:52;1.13;;;1.13;;
60292;SDS011;52402;52.670;6.750;2023-08-06T12:51:18;1.20;;;1.20;;
60292;SDS011;52402;52.670;6.750;2023-08-06T12:53:44;1.25;;;1.23;;
60292;SDS011;52402;52.670;6.750;2023-08-06T12:56:09;1.50;;;1.40;;
60292;SDS011;52402;52.670;6.750;2023-08-06T12:58:35;1.10;;;1.10;;
60292;SDS011;52402;52.670;6.750;2023-08-06T13:01:00;1.40;;;1.30;;
60292;SDS011;52402;52.670;6.750;2023-08-06T13:03:26;1.63;;;1.52;;
60292;SDS011;52402;52.670;6.750;2023-08-06T13:05:52;1.33;;;1.23;;
60292;SDS011;52402;52.670;6.750;2023-08-06T13:08:18;1.40;;;1.30;;
60292;SDS011;52402;52.670;6.750;2023-08-06T13:10:44;1.52;;;1.42;;
60292;SDS011;52402;52.670;6.750;2023-08-06T13:13:09;1.58;;;1.48;;
60292;SDS011;52402;52.670;6.750;2023-08-06T13:15:35;1.00;;;1.00;;
60292;SDS011;52402;52.670;6.750;2023-08-06T13:18:01;1.20;;;1.20;;
60292;SDS011;52402;52.670;6.750;2023-08-06T13:20:27;1.15;;;1.15;;
60292;SDS011;52402;52.670;6.750;2023-08-06T13:22:55;1.13;;;1.13;;
60292;SDS011;52402;52.670;6.750;2023-08-06T13:25:20;1.10;;;1.10;;
60292;SDS011;52402;52.670;6.750;2023-08-06T13:27:46;1.60;;;1.50;;
60292;SDS011;52402;52.670;6.750;2023-08-06T13:30:12;1.08;;;1.08;;
60292;SDS011;52402;52.670;6.750;2023-08-06T13:32:38;1.00;;;1.00;;
60292;SDS011;52402;52.670;6.750;2023-08-06T13:35:04;1.40;;;1.30;;
60292;SDS011;52402;52.670;6.750;2023-08-06T13:37:30;1.20;;;1.20;;
60292;SDS011;52402;52.670;6.750;2023-08-06T13:39:55;1.10;;;1.10;;
60292;SDS011;52402;52.670;6.750;2023-08-06T13:42:21;1.20;;;1.20;;
60292;SDS011;52402;52.670;6.750;2023-08-06T13:44:47;1.40;;;1.30;;
60292;SDS011;52402;52.670;6.750;2023-08-06T13:47:13;1.05;;;1.05;;
60292;SDS011;52402;52.670;6.750;2023-08-06T13:49:38;1.10;;;1.10;;
60292;SDS011;52402;52.670;6.750;2023-08-06T13:52:04;1.25;;;1.20;;
60292;SDS011;52402;52.670;6.750;2023-08-06T13:54:30;1.20;;;1.20;;
60292;SDS011;52402;52.670;6.750;2023-08-06T13:56:55;1.20;;;1.20;;
60292;SDS011;52402;52.670;6.750;2023-08-06T13:59:21;1.10;;;1.10;;
60292;SDS011;52402;52.670;6.750;2023-08-06T14:01:49;1.27;;;1.20;;
60292;SDS011;52402;52.670;6.750;2023-08-06T14:04:15;1.45;;;1.35;;
60292;SDS011;52402;52.670;6.750;2023-08-06T14:06:41;1.48;;;1.38;;
60292;SDS011;52402;52.670;6.750;2023-08-06T14:09:07;1.20;;;1.20;;
60292;SDS011;52402;52.670;6.750;2023-08-06T14:11:33;1.20;;;1.20;;
60292;SDS011;52402;52.670;6.750;2023-08-06T14:13:59;1.40;;;1.30;;
60292;SDS011;52402;52.670;6.750;2023-08-06T14:16:25;1.35;;;1.25;;
60292;SDS011;52402;52.670;6.750;2023-08-06T14:18:51;1.17;;;1.17;;
60292;SDS011;52402;52.670;6.750;2023-08-06T14:21:16;1.25;;;1.20;;
60292;SDS011;52402;52.670;6.750;2023-08-06T14:23:42;1.42;;;1.33;;
60292;SDS011;52402;52.670;6.750;2023-08-06T14:26:10;1.23;;;1.20;;
60292;SDS011;52402;52.670;6.750;2023-08-06T14:28:37;1.35;;;1.25;;
60292;SDS011;52402;52.670;6.750;2023-08-06T14:31:02;1.10;;;1.10;;
60292;SDS011;52402;52.670;6.750;2023-08-06T14:33:28;1.10;;;1.10;;
60292;SDS011;52402;52.670;6.750;2023-08-06T14:35:54;1.10;;;1.10;;
60292;SDS011;52402;52.670;6.750;2023-08-06T14:38:20;1.45;;;1.35;;
60292;SDS011;52402;52.670;6.750;2023-08-06T14:40:45;1.48;;;1.38;;
60292;SDS011;52402;52.670;6.750;2023-08-06T14:43:11;1.20;;;1.20;;
60292;SDS011;52402;52.670;6.750;2023-08-06T14:45:38;1.15;;;1.15;;
60292;SDS011;52402;52.670;6.750;2023-08-06T14:48:04;1.08;;;1.08;;
60292;SDS011;52402;52.670;6.750;2023-08-06T14:50:30;1.10;;;1.10;;
60292;SDS011;52402;52.670;6.750;2023-08-06T14:52:55;1.38;;;1.27;;
60292;SDS011;52402;52.670;6.750;2023-08-06T14:55:24;1.05;;;1.05;;
60292;SDS011;52402;52.670;6.750;2023-08-06T14:57:50;1.40;;;1.30;;
60292;SDS011;52402;52.670;6.750;2023-08-06T15:00:17;1.40;;;1.30;;
60292;SDS011;52402;52.670;6.750;2023-08-06T15:02:43;1.42;;;1.33;;